sensor_id;sensor_type;location;lat;lon;timestamp;temperature;humidity
51733;DHT22;39139;53.144;6.244;2023-12-20T00:00:25;5.80;99.90
51733;DHT22;39139;53.144;6.244;2023-12-20T00:02:51;5.80;99.90
51733;DHT22;39139;53.144;6.244;2023-12-20T00:05:16;5.90;99.90
51733;DHT22;39139;53.144;6.244;2023-12-20T00:07:42;5.90;99.90
51733;DHT22;39139;53.144;6.244;2023-12-20T00:10:08;5.90;99.90
51733;DHT22;39139;53.144;6.244;2023-12-20T00:12:34;5.90;99.90
51733;DHT22;39139;53.144;6.244;2023-12-20T00:14:59;5.90;99.90
51733;DHT22;39139;53.144;6.244;2023-12-20T00:17:25;5.90;99.90
51733;DHT22;39139;53.144;6.244;2023-12-20T00:19:50;5.90;99.90
51733;DHT22;39139;53.144;6.244;2023-12-20T00:22:16;5.90;99.90
51733;DHT22;39139;53.144;6.244;2023-12-20T00:24:42;5.80;99.90
51733;DHT22;39139;53.144;6.244;2023-12-20T00:27:07;5.80;99.90
51733;DHT22;39139;53.144;6.244;2023-12-20T00:29:33;5.80;99.90
51733;DHT22;39139;53.144;6.244;2023-12-20T00:31:59;5.70;99.90
51733;DHT22;39139;53.144;6.244;2023-12-20T00:34:24;5.70;99.90
51733;DHT22;39139;53.144;6.244;2023-12-20T00:36:50;5.70;99.90
51733;DHT22;39139;53.144;6.244;2023-12-20T00:39:15;5.70;99.90
51733;DHT22;39139;53.144;6.244;2023-12-20T00:41:41;6.60;99.90
51733;DHT22;39139;53.144;6.244;2023-12-20T00:44:06;5.60;99.90
51733;DHT22;39139;53.144;6.244;2023-12-20T00:46:32;5.60;99.90
51733;DHT22;39139;53.144;6.244;2023-12-20T00:48:58;5.60;99.90
51733;DHT22;39139;53.144;6.244;2023-12-20T00:51:23;5.60;99.90
51733;DHT22;39139;53.144;6.244;2023-12-20T00:53:50;5.50;99.90
51733;DHT22;39139;53.144;6.244;2023-12-20T00:56:20;5.50;99.90
51733;DHT22;39139;53.144;6.244;2023-12-20T00:58:45;5.50;99.90
51733;DHT22;39139;53.144;6.244;2023-12-20T01:01:11;5.60;99.90
51733;DHT22;39139;53.144;6.244;2023-12-20T01:03:36;5.70;99.90
51733;DHT22;39139;53.144;6.244;2023-12-20T01:06:02;5.70;99.90
51733;DHT22;39139;53.144;6.244;2023-12-20T01:08:29;5.70;99.90
51733;DHT22;39139;53.144;6.244;2023-12-20T01:10:55;5.80;99.90
51733;DHT22;39139;53.144;6.244;2023-12-20T01:13:21;5.80;99.90
51733;DHT22;39139;53.144;6.244;2023-12-20T01:15:47;5.80;99.90
51733;DHT22;39139;53.144;6.244;2023-12-20T01:18:13;5.70;99.90
51733;DHT22;39139;53.144;6.244;2023-12-20T01:20:39;5.70;99.90
51733;DHT22;39139;53.144;6.244;2023-12-20T01:23:04;5.70;99.90
51733;DHT22;39139;53.144;6.244;2023-12-20T01:25:30;5.70;99.90
51733;DHT22;39139;53.144;6.244;2023-12-20T01:27:56;5.80;99.90
51733;DHT22;39139;53.144;6.244;2023-12-20T01:30:21;5.80;99.90
51733;DHT22;39139;53.144;6.244;2023-12-20T01:32:47;5.90;99.90
51733;DHT22;39139;53.144;6.244;2023-12-20T01:35:13;5.80;99.90
51733;DHT22;39139;53.144;6.244;2023-12-20T01:37:39;5.90;99.90
51733;DHT22;39139;53.144;6.244;2023-12-20T01:40:05;5.90;99.90
51733;DHT22;39139;53.144;6.244;2023-12-20T01:42:31;6.00;99.90
51733;DHT22;39139;53.144;6.244;2023-12-20T01:44:56;6.00;99.90
51733;DHT22;39139;53.144;6.244;2023-12-20T01:47:22;5.90;99.90
51733;DHT22;39139;53.144;6.244;2023-12-20T01:49:49;5.90;99.90
51733;DHT22;39139;53.144;6.244;2023-12-20T01:52:14;5.90;99.90
51733;DHT22;39139;53.144;6.244;2023-12-20T01:54:40;6.00;99.90
51733;DHT22;39139;53.144;6.244;2023-12-20T01:57:07;6.00;99.90
51733;DHT22;39139;53.144;6.244;2023-12-20T01:59:34;6.10;99.90
51733;DHT22;39139;53.144;6.244;2023-12-20T02:02:00;6.00;99.90
51733;DHT22;39139;53.144;6.244;2023-12-20T02:04:27;6.10;99.90
51733;DHT22;39139;53.144;6.244;2023-12-20T02:06:52;6.10;99.90
51733;DHT22;39139;53.144;6.244;2023-12-20T02:09:19;6.20;99.90
51733;DHT22;39139;53.144;6.244;2023-12-20T02:11:44;6.20;99.90
51733;DHT22;39139;53.144;6.244;2023-12-20T02:14:10;6.20;99.90
51733;DHT22;39139;53.144;6.244;2023-12-20T02:16:36;6.20;99.90
51733;DHT22;39139;53.144;6.244;2023-12-20T02:19:03;6.20;99.90
51733;DHT22;39139;53.144;6.244;2023-12-20T02:21:32;6.10;99.90
51733;DHT22;39139;53.144;6.244;2023-12-20T02:24:01;6.10;99.90
51733;DHT22;39139;53.144;6.244;2023-12-20T02:26:27;6.10;99.90
51733;DHT22;39139;53.144;6.244;2023-12-20T02:28:52;6.20;99.90
51733;DHT22;39139;53.144;6.244;2023-12-20T02:31:21;6.20;99.90
51733;DHT22;39139;53.144;6.244;2023-12-20T02:33:47;6.20;99.90
51733;DHT22;39139;53.144;6.244;2023-12-20T02:36:13;6.30;99.90
51733;DHT22;39139;53.144;6.244;2023-12-20T02:38:39;6.30;99.90
51733;DHT22;39139;53.144;6.244;2023-12-20T02:41:04;6.40;99.90
51733;DHT22;39139;53.144;6.244;2023-12-20T02:43:30;6.40;99.90
51733;DHT22;39139;53.144;6.244;2023-12-20T02:45:55;6.30;99.90
51733;DHT22;39139;53.144;6.244;2023-12-20T02:48:22;6.40;99.90
51733;DHT22;39139;53.144;6.244;2023-12-20T02:50:48;6.40;99.90
51733;DHT22;39139;53.144;6.244;2023-12-20T02:53:14;6.50;99.90
51733;DHT22;39139;53.144;6.244;2023-12-20T02:55:40;6.40;99.90
51733;DHT22;39139;53.144;6.244;2023-12-20T02:58:05;6.40;99.90
51733;DHT22;39139;53.144;6.244;2023-12-20T03:00:31;6.40;99.90
51733;DHT22;39139;53.144;6.244;2023-12-20T03:02:57;6.90;99.90
51733;DHT22;39139;53.144;6.244;2023-12-20T03:05:24;6.40;99.90
51733;DHT22;39139;53.144;6.244;2023-12-20T03:07:50;6.30;99.90
51733;DHT22;39139;53.144;6.244;2023-12-20T03:10:16;6.30;99.90
51733;DHT22;39139;53.144;6.244;2023-12-20T03:12:41;6.30;99.90
51733;DHT22;39139;53.144;6.244;2023-12-20T03:15:07;6.40;99.90
51733;DHT22;39139;53.144;6.244;2023-12-20T03:17:33;6.40;99.90
51733;DHT22;39139;53.144;6.244;2023-12-20T03:19:58;6.50;99.90
51733;DHT22;39139;53.144;6.244;2023-12-20T03:22:24;6.50;99.90
51733;DHT22;39139;53.144;6.244;2023-12-20T03:24:50;6.50;99.90
51733;DHT22;39139;53.144;6.244;2023-12-20T03:27:15;6.50;99.90
51733;DHT22;39139;53.144;6.244;2023-12-20T03:29:41;6.50;99.90
51733;DHT22;39139;53.144;6.244;2023-12-20T03:32:06;6.50;99.90
51733;DHT22;39139;53.144;6.244;2023-12-20T03:34:33;7.30;99.90
51733;DHT22;39139;53.144;6.244;2023-12-20T03:36:59;7.00;99.90
51733;DHT22;39139;53.144;6.244;2023-12-20T03:39:25;6.60;99.90
51733;DHT22;39139;53.144;6.244;2023-12-20T03:41:50;6.60;99.90
51733;DHT22;39139;53.144;6.244;2023-12-20T03:44:16;6.70;99.90
51733;DHT22;39139;53.144;6.244;2023-12-20T03:46:41;6.70;99.90
51733;DHT22;39139;53.144;6.244;2023-12-20T03:49:07;6.70;99.90
51733;DHT22;39139;53.144;6.244;2023-12-20T03:51:33;6.70;99.90
51733;DHT22;39139;53.144;6.244;2023-12-20T03:53:58;6.70;99.90
51733;DHT22;39139;53.144;6.244;2023-12-20T03:56:24;6.60;99.90
51733;DHT22;39139;53.144;6.244;2023-12-20T03:58:49;6.70;99.90
51733;DHT22;39139;53.144;6.244;2023-12-20T04:01:15;6.60;99.90
51733;DHT22;39139;53.144;6.244;2023-12-20T04:03:41;6.60;99.90
51733;DHT22;39139;53.144;6.244;2023-12-20T04:06:06;6.60;99.90
51733;DHT22;39139;53.144;6.244;2023-12-20T04:08:32;6.70;99.90
51733;DHT22;39139;53.144;6.244;2023-12-20T04:10:58;6.80;99.90
51733;DHT22;39139;53.144;6.244;2023-12-20T04:13:23;6.70;99.90
51733;DHT22;39139;53.144;6.244;2023-12-20T04:15:49;6.80;99.90
51733;DHT22;39139;53.144;6.244;2023-12-20T04:18:16;6.90;99.90
51733;DHT22;39139;53.144;6.244;2023-12-20T04:20:42;7.20;99.90
51733;DHT22;39139;53.144;6.244;2023-12-20T04:23:07;6.80;99.90
51733;DHT22;39139;53.144;6.244;2023-12-20T04:25:33;7.00;99.90
51733;DHT22;39139;53.144;6.244;2023-12-20T04:27:58;6.80;99.90
51733;DHT22;39139;53.144;6.244;2023-12-20T04:30:24;6.80;99.90
51733;DHT22;39139;53.144;6.244;2023-12-20T04:32:49;6.90;99.90
51733;DHT22;39139;53.144;6.244;2023-12-20T04:35:15;6.90;99.90
51733;DHT22;39139;53.144;6.244;2023-12-20T04:37:41;6.90;99.90
51733;DHT22;39139;53.144;6.244;2023-12-20T04:40:07;6.90;99.90
51733;DHT22;39139;53.144;6.244;2023-12-20T04:42:33;7.00;99.90
51733;DHT22;39139;53.144;6.244;2023-12-20T04:44:59;7.30;99.90
51733;DHT22;39139;53.144;6.244;2023-12-20T04:47:25;7.30;99.90
51733;DHT22;39139;53.144;6.244;2023-12-20T04:49:50;7.50;99.90
51733;DHT22;39139;53.144;6.244;2023-12-20T04:52:16;7.00;99.90
51733;DHT22;39139;53.144;6.244;2023-12-20T04:54:41;7.00;99.90
51733;DHT22;39139;53.144;6.244;2023-12-20T04:57:07;7.10;99.90
51733;DHT22;39139;53.144;6.244;2023-12-20T04:59:32;7.10;99.90
51733;DHT22;39139;53.144;6.244;2023-12-20T05:01:58;7.10;99.90
51733;DHT22;39139;53.144;6.244;2023-12-20T05:04:24;7.10;99.90
51733;DHT22;39139;53.144;6.244;2023-12-20T05:06:49;7.10;99.90
51733;DHT22;39139;53.144;6.244;2023-12-20T05:09:15;7.20;99.90
51733;DHT22;39139;53.144;6.244;2023-12-20T05:11:41;7.20;99.90
51733;DHT22;39139;53.144;6.244;2023-12-20T05:14:07;7.20;99.90
51733;DHT22;39139;53.144;6.244;2023-12-20T05:16:32;7.20;99.90
51733;DHT22;39139;53.144;6.244;2023-12-20T05:18:58;7.20;99.90
51733;DHT22;39139;53.144;6.244;2023-12-20T05:21:26;7.20;99.90
51733;DHT22;39139;53.144;6.244;2023-12-20T05:23:52;7.20;99.90
51733;DHT22;39139;53.144;6.244;2023-12-20T05:26:17;7.20;99.90
51733;DHT22;39139;53.144;6.244;2023-12-20T05:28:43;7.20;99.90
51733;DHT22;39139;53.144;6.244;2023-12-20T05:31:09;7.30;99.90
51733;DHT22;39139;53.144;6.244;2023-12-20T05:33:35;7.20;99.90
51733;DHT22;39139;53.144;6.244;2023-12-20T05:36:00;7.30;99.90
51733;DHT22;39139;53.144;6.244;2023-12-20T05:38:26;7.30;99.90
51733;DHT22;39139;53.144;6.244;2023-12-20T05:40:51;7.30;99.90
51733;DHT22;39139;53.144;6.244;2023-12-20T05:43:17;7.30;99.90
51733;DHT22;39139;53.144;6.244;2023-12-20T05:45:43;7.30;99.90
51733;DHT22;39139;53.144;6.244;2023-12-20T05:48:08;7.30;99.90
51733;DHT22;39139;53.144;6.244;2023-12-20T05:50:34;7.20;99.90
51733;DHT22;39139;53.144;6.244;2023-12-20T05:53:00;7.30;99.90
51733;DHT22;39139;53.144;6.244;2023-12-20T05:55:26;7.30;99.90
51733;DHT22;39139;53.144;6.244;2023-12-20T05:57:52;7.30;99.90
51733;DHT22;39139;53.144;6.244;2023-12-20T06:00:18;7.40;99.90
51733;DHT22;39139;53.144;6.244;2023-12-20T06:02:43;7.40;99.90
51733;DHT22;39139;53.144;6.244;2023-12-20T06:05:09;7.40;99.90
51733;DHT22;39139;53.144;6.244;2023-12-20T06:07:35;7.40;99.90
51733;DHT22;39139;53.144;6.244;2023-12-20T06:10:00;7.50;99.90
51733;DHT22;39139;53.144;6.244;2023-12-20T06:12:26;7.50;99.90
51733;DHT22;39139;53.144;6.244;2023-12-20T06:14:54;7.50;99.90
51733;DHT22;39139;53.144;6.244;2023-12-20T06:17:19;7.60;99.90
51733;DHT22;39139;53.144;6.244;2023-12-20T06:19:45;7.90;99.90
51733;DHT22;39139;53.144;6.244;2023-12-20T06:22:14;7.60;99.90
51733;DHT22;39139;53.144;6.244;2023-12-20T06:24:39;7.60;99.90
51733;DHT22;39139;53.144;6.244;2023-12-20T06:27:05;8.00;99.90
51733;DHT22;39139;53.144;6.244;2023-12-20T06:29:30;7.60;99.90
51733;DHT22;39139;53.144;6.244;2023-12-20T06:31:56;7.70;99.90
51733;DHT22;39139;53.144;6.244;2023-12-20T06:34:22;7.70;99.90
51733;DHT22;39139;53.144;6.244;2023-12-20T06:36:47;7.70;99.90
51733;DHT22;39139;53.144;6.244;2023-12-20T06:39:13;7.70;99.90
51733;DHT22;39139;53.144;6.244;2023-12-20T06:41:39;7.80;99.90
51733;DHT22;39139;53.144;6.244;2023-12-20T06:44:05;7.80;99.90
51733;DHT22;39139;53.144;6.244;2023-12-20T06:46:30;7.80;99.90
51733;DHT22;39139;53.144;6.244;2023-12-20T06:48:56;9.20;99.90
51733;DHT22;39139;53.144;6.244;2023-12-20T06:51:22;7.70;99.90
51733;DHT22;39139;53.144;6.244;2023-12-20T06:53:53;7.70;99.90
51733;DHT22;39139;53.144;6.244;2023-12-20T06:56:19;7.70;99.90
51733;DHT22;39139;53.144;6.244;2023-12-20T06:58:45;7.70;99.90
51733;DHT22;39139;53.144;6.244;2023-12-20T07:01:15;7.70;99.90
51733;DHT22;39139;53.144;6.244;2023-12-20T07:03:41;7.80;99.90
51733;DHT22;39139;53.144;6.244;2023-12-20T07:06:07;7.80;99.90
51733;DHT22;39139;53.144;6.244;2023-12-20T07:08:33;7.80;99.90
51733;DHT22;39139;53.144;6.244;2023-12-20T07:10:59;7.80;99.90
51733;DHT22;39139;53.144;6.244;2023-12-20T07:13:24;7.80;99.90
51733;DHT22;39139;53.144;6.244;2023-12-20T07:15:50;7.80;99.90
51733;DHT22;39139;53.144;6.244;2023-12-20T07:18:16;7.80;99.90
51733;DHT22;39139;53.144;6.244;2023-12-20T07:20:42;8.90;99.90
51733;DHT22;39139;53.144;6.244;2023-12-20T07:23:08;7.80;99.90
51733;DHT22;39139;53.144;6.244;2023-12-20T07:25:34;7.80;99.90
51733;DHT22;39139;53.144;6.244;2023-12-20T07:27:59;7.90;99.90
51733;DHT22;39139;53.144;6.244;2023-12-20T07:30:25;8.10;99.90
51733;DHT22;39139;53.144;6.244;2023-12-20T07:32:51;7.90;99.90
51733;DHT22;39139;53.144;6.244;2023-12-20T07:35:17;7.90;99.90
51733;DHT22;39139;53.144;6.244;2023-12-20T07:37:43;7.90;99.90
51733;DHT22;39139;53.144;6.244;2023-12-20T07:40:09;7.90;99.90
51733;DHT22;39139;53.144;6.244;2023-12-20T07:42:35;7.90;99.90
51733;DHT22;39139;53.144;6.244;2023-12-20T07:45:01;7.80;99.90
51733;DHT22;39139;53.144;6.244;2023-12-20T07:47:26;7.70;99.90
51733;DHT22;39139;53.144;6.244;2023-12-20T07:49:52;7.90;99.90
51733;DHT22;39139;53.144;6.244;2023-12-20T07:52:18;7.80;99.90
51733;DHT22;39139;53.144;6.244;2023-12-20T07:54:44;7.80;99.90
51733;DHT22;39139;53.144;6.244;2023-12-20T07:57:10;7.80;99.90
51733;DHT22;39139;53.144;6.244;2023-12-20T07:59:36;8.20;99.90
51733;DHT22;39139;53.144;6.244;2023-12-20T08:02:02;7.90;99.90
51733;DHT22;39139;53.144;6.244;2023-12-20T08:04:28;8.00;99.90
51733;DHT22;39139;53.144;6.244;2023-12-20T08:06:53;8.00;99.90
51733;DHT22;39139;53.144;6.244;2023-12-20T08:09:19;8.10;99.90
51733;DHT22;39139;53.144;6.244;2023-12-20T08:11:48;8.10;99.90
51733;DHT22;39139;53.144;6.244;2023-12-20T08:14:14;8.20;99.90
51733;DHT22;39139;53.144;6.244;2023-12-20T08:16:39;8.60;99.90
51733;DHT22;39139;53.144;6.244;2023-12-20T08:19:05;8.20;99.90
51733;DHT22;39139;53.144;6.244;2023-12-20T08:21:31;8.50;99.90
51733;DHT22;39139;53.144;6.244;2023-12-20T08:23:56;8.10;99.90
51733;DHT22;39139;53.144;6.244;2023-12-20T08:26:22;8.00;99.90
51733;DHT22;39139;53.144;6.244;2023-12-20T08:28:49;7.90;99.90
51733;DHT22;39139;53.144;6.244;2023-12-20T08:31:16;8.00;99.90
51733;DHT22;39139;53.144;6.244;2023-12-20T08:33:44;7.90;99.90
51733;DHT22;39139;53.144;6.244;2023-12-20T08:36:10;7.90;99.90
51733;DHT22;39139;53.144;6.244;2023-12-20T08:38:36;7.80;99.90
51733;DHT22;39139;53.144;6.244;2023-12-20T08:41:01;7.80;99.90
51733;DHT22;39139;53.144;6.244;2023-12-20T08:43:28;7.80;99.90
51733;DHT22;39139;53.144;6.244;2023-12-20T08:45:54;7.90;99.90
51733;DHT22;39139;53.144;6.244;2023-12-20T08:48:20;8.50;99.90
51733;DHT22;39139;53.144;6.244;2023-12-20T08:50:45;7.90;99.90
51733;DHT22;39139;53.144;6.244;2023-12-20T08:53:12;8.00;99.90
51733;DHT22;39139;53.144;6.244;2023-12-20T08:55:38;8.00;99.90
51733;DHT22;39139;53.144;6.244;2023-12-20T08:58:03;8.10;99.90
51733;DHT22;39139;53.144;6.244;2023-12-20T09:00:32;8.20;99.90
51733;DHT22;39139;53.144;6.244;2023-12-20T09:02:57;8.20;99.90
51733;DHT22;39139;53.144;6.244;2023-12-20T09:05:23;8.20;99.90
51733;DHT22;39139;53.144;6.244;2023-12-20T09:07:48;8.10;99.90
51733;DHT22;39139;53.144;6.244;2023-12-20T09:10:14;8.10;99.90
51733;DHT22;39139;53.144;6.244;2023-12-20T09:12:40;7.70;99.90
51733;DHT22;39139;53.144;6.244;2023-12-20T09:15:06;7.40;99.90
51733;DHT22;39139;53.144;6.244;2023-12-20T09:17:32;7.20;99.90
51733;DHT22;39139;53.144;6.244;2023-12-20T09:19:58;7.10;99.90
51733;DHT22;39139;53.144;6.244;2023-12-20T09:22:25;6.90;99.90
51733;DHT22;39139;53.144;6.244;2023-12-20T09:24:51;6.70;99.90
51733;DHT22;39139;53.144;6.244;2023-12-20T09:27:16;6.60;99.90
51733;DHT22;39139;53.144;6.244;2023-12-20T09:29:42;7.00;99.90
51733;DHT22;39139;53.144;6.244;2023-12-20T09:32:08;6.80;99.90
51733;DHT22;39139;53.144;6.244;2023-12-20T09:34:33;6.50;99.90
51733;DHT22;39139;53.144;6.244;2023-12-20T09:36:59;6.40;99.90
51733;DHT22;39139;53.144;6.244;2023-12-20T09:39:25;6.40;99.90
51733;DHT22;39139;53.144;6.244;2023-12-20T09:42:03;6.30;99.90
51733;DHT22;39139;53.144;6.244;2023-12-20T09:44:29;6.30;99.90
51733;DHT22;39139;53.144;6.244;2023-12-20T09:46:56;6.30;99.90
51733;DHT22;39139;53.144;6.244;2023-12-20T09:49:22;6.30;99.90
51733;DHT22;39139;53.144;6.244;2023-12-20T09:51:50;6.30;99.90
51733;DHT22;39139;53.144;6.244;2023-12-20T09:54:21;6.40;99.90
51733;DHT22;39139;53.144;6.244;2023-12-20T09:56:47;6.30;99.90
51733;DHT22;39139;53.144;6.244;2023-12-20T09:59:13;6.30;99.90
51733;DHT22;39139;53.144;6.244;2023-12-20T10:01:43;6.40;99.90
51733;DHT22;39139;53.144;6.244;2023-12-20T10:04:09;6.40;99.90
51733;DHT22;39139;53.144;6.244;2023-12-20T10:06:44;6.90;99.90
51733;DHT22;39139;53.144;6.244;2023-12-20T10:09:11;6.50;99.90
51733;DHT22;39139;53.144;6.244;2023-12-20T10:11:38;6.40;99.90
51733;DHT22;39139;53.144;6.244;2023-12-20T10:14:04;6.50;99.90
51733;DHT22;39139;53.144;6.244;2023-12-20T10:16:30;6.40;99.90
51733;DHT22;39139;53.144;6.244;2023-12-20T10:18:59;6.40;99.90
51733;DHT22;39139;53.144;6.244;2023-12-20T10:21:25;6.50;99.90
51733;DHT22;39139;53.144;6.244;2023-12-20T10:23:55;6.60;99.90
51733;DHT22;39139;53.144;6.244;2023-12-20T10:26:26;6.70;99.90
51733;DHT22;39139;53.144;6.244;2023-12-20T10:28:59;7.00;99.90
51733;DHT22;39139;53.144;6.244;2023-12-20T10:31:33;7.10;99.90
51733;DHT22;39139;53.144;6.244;2023-12-20T10:34:01;7.40;99.90
51733;DHT22;39139;53.144;6.244;2023-12-20T10:36:30;7.50;99.90
51733;DHT22;39139;53.144;6.244;2023-12-20T10:38:57;7.60;99.90
51733;DHT22;39139;53.144;6.244;2023-12-20T10:41:28;7.60;99.90
51733;DHT22;39139;53.144;6.244;2023-12-20T10:44:02;7.90;99.90
51733;DHT22;39139;53.144;6.244;2023-12-20T10:46:28;7.50;99.90
51733;DHT22;39139;53.144;6.244;2023-12-20T10:48:56;7.40;99.90
51733;DHT22;39139;53.144;6.244;2023-12-20T10:51:22;7.30;99.90
51733;DHT22;39139;53.144;6.244;2023-12-20T10:53:50;7.20;99.90
51733;DHT22;39139;53.144;6.244;2023-12-20T10:56:16;7.20;99.90
51733;DHT22;39139;53.144;6.244;2023-12-20T10:58:43;7.10;99.90
51733;DHT22;39139;53.144;6.244;2023-12-20T11:01:13;7.10;99.90
51733;DHT22;39139;53.144;6.244;2023-12-20T11:03:43;7.10;99.90
51733;DHT22;39139;53.144;6.244;2023-12-20T11:12:15;7.10;99.90
51733;DHT22;39139;53.144;6.244;2023-12-20T11:14:46;7.10;99.90
51733;DHT22;39139;53.144;6.244;2023-12-20T11:17:12;7.10;99.90
51733;DHT22;39139;53.144;6.244;2023-12-20T11:22:36;7.20;99.90
51733;DHT22;39139;53.144;6.244;2023-12-20T11:25:05;7.20;99.90
51733;DHT22;39139;53.144;6.244;2023-12-20T11:27:32;7.30;99.90
51733;DHT22;39139;53.144;6.244;2023-12-20T11:29:58;7.40;99.90
51733;DHT22;39139;53.144;6.244;2023-12-20T11:37:35;8.10;99.90
51733;DHT22;39139;53.144;6.244;2023-12-20T11:40:21;8.10;99.90
51733;DHT22;39139;53.144;6.244;2023-12-20T11:42:49;8.10;99.90
51733;DHT22;39139;53.144;6.244;2023-12-20T11:45:23;8.10;99.90
51733;DHT22;39139;53.144;6.244;2023-12-20T11:47:50;8.00;99.90
51733;DHT22;39139;53.144;6.244;2023-12-20T11:50:17;7.90;99.90
51733;DHT22;39139;53.144;6.244;2023-12-20T11:52:43;7.90;99.90
51733;DHT22;39139;53.144;6.244;2023-12-20T11:55:08;7.80;99.90
51733;DHT22;39139;53.144;6.244;2023-12-20T11:57:35;7.80;99.90
51733;DHT22;39139;53.144;6.244;2023-12-20T12:00:02;7.80;99.90
51733;DHT22;39139;53.144;6.244;2023-12-20T12:02:28;7.70;99.90
51733;DHT22;39139;53.144;6.244;2023-12-20T12:04:53;7.70;99.90
51733;DHT22;39139;53.144;6.244;2023-12-20T12:07:20;7.70;99.90
51733;DHT22;39139;53.144;6.244;2023-12-20T12:09:46;7.80;99.90
51733;DHT22;39139;53.144;6.244;2023-12-20T12:12:12;7.80;99.90
51733;DHT22;39139;53.144;6.244;2023-12-20T12:14:38;7.70;99.90
51733;DHT22;39139;53.144;6.244;2023-12-20T12:17:10;7.80;99.90
51733;DHT22;39139;53.144;6.244;2023-12-20T12:19:37;7.80;99.90
51733;DHT22;39139;53.144;6.244;2023-12-20T12:22:12;7.70;99.90
51733;DHT22;39139;53.144;6.244;2023-12-20T12:24:40;7.70;99.90
51733;DHT22;39139;53.144;6.244;2023-12-20T12:27:06;7.80;99.90
51733;DHT22;39139;53.144;6.244;2023-12-20T12:29:33;7.70;99.90
51733;DHT22;39139;53.144;6.244;2023-12-20T12:31:59;7.70;99.90
51733;DHT22;39139;53.144;6.244;2023-12-20T12:34:27;7.70;99.90
51733;DHT22;39139;53.144;6.244;2023-12-20T12:36:53;7.90;99.90
51733;DHT22;39139;53.144;6.244;2023-12-20T12:39:19;7.70;99.90
51733;DHT22;39139;53.144;6.244;2023-12-20T12:41:45;7.70;99.90
51733;DHT22;39139;53.144;6.244;2023-12-20T12:44:11;7.70;99.90
51733;DHT22;39139;53.144;6.244;2023-12-20T12:46:36;7.70;99.90
51733;DHT22;39139;53.144;6.244;2023-12-20T12:49:02;7.70;99.90
51733;DHT22;39139;53.144;6.244;2023-12-20T12:51:28;7.70;99.90
51733;DHT22;39139;53.144;6.244;2023-12-20T12:53:53;7.60;99.90
51733;DHT22;39139;53.144;6.244;2023-12-20T12:56:19;7.60;99.90
51733;DHT22;39139;53.144;6.244;2023-12-20T12:58:45;7.60;99.90
51733;DHT22;39139;53.144;6.244;2023-12-20T13:01:11;7.60;99.90
51733;DHT22;39139;53.144;6.244;2023-12-20T13:03:37;7.50;99.90
51733;DHT22;39139;53.144;6.244;2023-12-20T13:06:03;7.40;99.90
51733;DHT22;39139;53.144;6.244;2023-12-20T13:08:29;7.40;99.90
51733;DHT22;39139;53.144;6.244;2023-12-20T13:10:55;7.40;99.90
51733;DHT22;39139;53.144;6.244;2023-12-20T13:13:22;7.50;99.90
51733;DHT22;39139;53.144;6.244;2023-12-20T13:15:48;7.30;99.90
51733;DHT22;39139;53.144;6.244;2023-12-20T13:18:18;7.20;99.90
51733;DHT22;39139;53.144;6.244;2023-12-20T13:20:44;7.20;99.90
51733;DHT22;39139;53.144;6.244;2023-12-20T13:23:10;7.10;99.90
51733;DHT22;39139;53.144;6.244;2023-12-20T13:25:35;7.00;99.90
51733;DHT22;39139;53.144;6.244;2023-12-20T13:28:01;6.90;99.90
51733;DHT22;39139;53.144;6.244;2023-12-20T13:30:28;6.80;99.90
51733;DHT22;39139;53.144;6.244;2023-12-20T13:32:53;6.80;99.90
51733;DHT22;39139;53.144;6.244;2023-12-20T13:35:19;6.60;99.90
51733;DHT22;39139;53.144;6.244;2023-12-20T13:37:46;6.70;99.90
51733;DHT22;39139;53.144;6.244;2023-12-20T13:40:12;6.70;99.90
51733;DHT22;39139;53.144;6.244;2023-12-20T13:42:38;7.00;99.90
51733;DHT22;39139;53.144;6.244;2023-12-20T13:45:05;6.60;99.90
51733;DHT22;39139;53.144;6.244;2023-12-20T13:47:31;6.60;99.90
51733;DHT22;39139;53.144;6.244;2023-12-20T13:49:57;6.60;99.90
51733;DHT22;39139;53.144;6.244;2023-12-20T13:52:23;6.60;99.90
51733;DHT22;39139;53.144;6.244;2023-12-20T13:54:48;6.60;99.90
51733;DHT22;39139;53.144;6.244;2023-12-20T13:57:14;6.60;99.90
51733;DHT22;39139;53.144;6.244;2023-12-20T13:59:40;6.60;99.90
51733;DHT22;39139;53.144;6.244;2023-12-20T14:02:05;6.60;99.90
51733;DHT22;39139;53.144;6.244;2023-12-20T14:04:31;6.50;99.90
51733;DHT22;39139;53.144;6.244;2023-12-20T14:06:57;6.50;99.90
51733;DHT22;39139;53.144;6.244;2023-12-20T14:09:23;6.50;99.90
51733;DHT22;39139;53.144;6.244;2023-12-20T14:11:48;6.40;99.90
51733;DHT22;39139;53.144;6.244;2023-12-20T14:14:14;6.40;99.90
51733;DHT22;39139;53.144;6.244;2023-12-20T14:16:39;6.40;99.90
51733;DHT22;39139;53.144;6.244;2023-12-20T14:19:05;6.40;99.90
51733;DHT22;39139;53.144;6.244;2023-12-20T14:21:33;6.50;99.90
51733;DHT22;39139;53.144;6.244;2023-12-20T14:23:59;6.40;99.90
51733;DHT22;39139;53.144;6.244;2023-12-20T14:26:25;6.40;99.90
51733;DHT22;39139;53.144;6.244;2023-12-20T14:28:51;6.40;99.90
51733;DHT22;39139;53.144;6.244;2023-12-20T14:31:16;6.40;99.90
51733;DHT22;39139;53.144;6.244;2023-12-20T14:33:42;6.40;99.90
51733;DHT22;39139;53.144;6.244;2023-12-20T14:36:08;6.40;99.90
51733;DHT22;39139;53.144;6.244;2023-12-20T14:38:34;6.40;99.90
51733;DHT22;39139;53.144;6.244;2023-12-20T14:41:00;6.40;99.90
51733;DHT22;39139;53.144;6.244;2023-12-20T14:43:28;6.40;99.90
51733;DHT22;39139;53.144;6.244;2023-12-20T14:45:55;6.40;99.90
51733;DHT22;39139;53.144;6.244;2023-12-20T14:48:20;6.40;99.90
51733;DHT22;39139;53.144;6.244;2023-12-20T14:50:46;6.30;99.90
51733;DHT22;39139;53.144;6.244;2023-12-20T14:53:14;6.30;99.90
51733;DHT22;39139;53.144;6.244;2023-12-20T14:55:42;6.30;99.90
51733;DHT22;39139;53.144;6.244;2023-12-20T14:58:08;6.30;99.90
51733;DHT22;39139;53.144;6.244;2023-12-20T15:00:33;6.30;99.90
51733;DHT22;39139;53.144;6.244;2023-12-20T15:02:59;6.30;99.90
51733;DHT22;39139;53.144;6.244;2023-12-20T15:05:25;6.30;99.90
51733;DHT22;39139;53.144;6.244;2023-12-20T15:07:52;6.30;99.90
51733;DHT22;39139;53.144;6.244;2023-12-20T15:10:18;6.30;99.90
51733;DHT22;39139;53.144;6.244;2023-12-20T15:12:44;6.30;99.90
51733;DHT22;39139;53.144;6.244;2023-12-20T15:15:13;6.30;99.90
51733;DHT22;39139;53.144;6.244;2023-12-20T15:17:39;6.30;99.90
51733;DHT22;39139;53.144;6.244;2023-12-20T15:20:05;6.30;99.90
51733;DHT22;39139;53.144;6.244;2023-12-20T15:22:30;6.30;99.90
51733;DHT22;39139;53.144;6.244;2023-12-20T15:24:59;6.30;99.90
51733;DHT22;39139;53.144;6.244;2023-12-20T15:27:25;6.50;99.90
51733;DHT22;39139;53.144;6.244;2023-12-20T15:29:50;6.30;99.90
51733;DHT22;39139;53.144;6.244;2023-12-20T15:32:17;6.30;99.90
51733;DHT22;39139;53.144;6.244;2023-12-20T15:34:44;6.30;99.90
51733;DHT22;39139;53.144;6.244;2023-12-20T15:37:10;6.40;99.90
51733;DHT22;39139;53.144;6.244;2023-12-20T15:39:36;6.60;99.90
51733;DHT22;39139;53.144;6.244;2023-12-20T15:42:02;6.40;99.90
51733;DHT22;39139;53.144;6.244;2023-12-20T15:44:28;6.40;99.90
51733;DHT22;39139;53.144;6.244;2023-12-20T15:46:53;6.50;99.90
51733;DHT22;39139;53.144;6.244;2023-12-20T15:49:19;6.60;99.90
51733;DHT22;39139;53.144;6.244;2023-12-20T15:51:45;6.70;99.90